sensor_id;sensor_type;location;lat;lon;timestamp;temperature;humidity
18779;DHT22;9518;51.720;14.384;2024-02-21T00:00:29;6.40;99.90
18779;DHT22;9518;51.720;14.384;2024-02-21T00:02:56;6.40;99.90
18779;DHT22;9518;51.720;14.384;2024-02-21T00:05:27;6.50;99.90
18779;DHT22;9518;51.720;14.384;2024-02-21T00:07:54;6.50;99.90
18779;DHT22;9518;51.720;14.384;2024-02-21T00:10:21;6.50;99.90
18779;DHT22;9518;51.720;14.384;2024-02-21T00:12:50;6.50;99.90
18779;DHT22;9518;51.720;14.384;2024-02-21T00:15:19;6.40;99.90
18779;DHT22;9518;51.720;14.384;2024-02-21T00:17:48;6.40;99.90
18779;DHT22;9518;51.720;14.384;2024-02-21T00:20:15;6.40;99.90
18779;DHT22;9518;51.720;14.384;2024-02-21T00:22:43;6.40;99.90
18779;DHT22;9518;51.720;14.384;2024-02-21T00:25:10;6.50;99.90
18779;DHT22;9518;51.720;14.384;2024-02-21T00:27:37;6.60;99.90
18779;DHT22;9518;51.720;14.384;2024-02-21T00:30:05;6.60;99.90
18779;DHT22;9518;51.720;14.384;2024-02-21T00:32:34;6.60;99.90
18779;DHT22;9518;51.720;14.384;2024-02-21T00:35:01;6.50;99.90
18779;DHT22;9518;51.720;14.384;2024-02-21T00:37:28;6.50;99.90
18779;DHT22;9518;51.720;14.384;2024-02-21T00:39:55;6.60;99.90
18779;DHT22;9518;51.720;14.384;2024-02-21T00:42:22;6.60;99.90
18779;DHT22;9518;51.720;14.384;2024-02-21T00:44:50;6.70;99.90
18779;DHT22;9518;51.720;14.384;2024-02-21T00:47:17;6.70;99.90
18779;DHT22;9518;51.720;14.384;2024-02-21T00:49:45;6.60;99.90
18779;DHT22;9518;51.720;14.384;2024-02-21T00:52:12;6.70;99.90
18779;DHT22;9518;51.720;14.384;2024-02-21T00:54:39;6.70;99.90
18779;DHT22;9518;51.720;14.384;2024-02-21T00:57:06;6.70;99.90
18779;DHT22;9518;51.720;14.384;2024-02-21T00:59:34;6.60;99.90
18779;DHT22;9518;51.720;14.384;2024-02-21T01:02:01;6.60;99.90
18779;DHT22;9518;51.720;14.384;2024-02-21T01:04:28;6.70;99.90
18779;DHT22;9518;51.720;14.384;2024-02-21T01:06:56;6.70;99.90
18779;DHT22;9518;51.720;14.384;2024-02-21T01:09:23;6.70;99.90
18779;DHT22;9518;51.720;14.384;2024-02-21T01:11:50;6.70;99.90
18779;DHT22;9518;51.720;14.384;2024-02-21T01:14:17;6.80;99.90
18779;DHT22;9518;51.720;14.384;2024-02-21T01:16:44;6.80;99.90
18779;DHT22;9518;51.720;14.384;2024-02-21T01:19:11;6.80;99.90
18779;DHT22;9518;51.720;14.384;2024-02-21T01:21:38;6.70;99.90
18779;DHT22;9518;51.720;14.384;2024-02-21T01:24:06;6.80;99.90
18779;DHT22;9518;51.720;14.384;2024-02-21T01:26:33;6.70;99.90
18779;DHT22;9518;51.720;14.384;2024-02-21T01:29:00;6.80;99.90
18779;DHT22;9518;51.720;14.384;2024-02-21T01:31:27;6.90;99.90
18779;DHT22;9518;51.720;14.384;2024-02-21T01:33:54;6.80;99.90
18779;DHT22;9518;51.720;14.384;2024-02-21T01:36:21;6.90;99.90
18779;DHT22;9518;51.720;14.384;2024-02-21T01:38:49;6.90;99.90
18779;DHT22;9518;51.720;14.384;2024-02-21T01:41:18;7.00;99.90
18779;DHT22;9518;51.720;14.384;2024-02-21T01:43:45;7.00;99.90
18779;DHT22;9518;51.720;14.384;2024-02-21T01:46:12;7.00;99.90
18779;DHT22;9518;51.720;14.384;2024-02-21T01:48:40;7.00;99.90
18779;DHT22;9518;51.720;14.384;2024-02-21T01:51:07;6.90;99.90
18779;DHT22;9518;51.720;14.384;2024-02-21T01:53:36;6.90;99.90
18779;DHT22;9518;51.720;14.384;2024-02-21T01:56:05;7.00;99.90
18779;DHT22;9518;51.720;14.384;2024-02-21T01:58:36;7.00;99.90
18779;DHT22;9518;51.720;14.384;2024-02-21T02:01:04;7.00;99.90
18779;DHT22;9518;51.720;14.384;2024-02-21T02:03:31;7.00;99.90
18779;DHT22;9518;51.720;14.384;2024-02-21T02:05:58;6.90;99.90
18779;DHT22;9518;51.720;14.384;2024-02-21T02:08:25;6.90;99.90
18779;DHT22;9518;51.720;14.384;2024-02-21T02:10:53;6.90;99.90
18779;DHT22;9518;51.720;14.384;2024-02-21T02:13:20;6.90;99.90
18779;DHT22;9518;51.720;14.384;2024-02-21T02:15:49;6.90;99.90
18779;DHT22;9518;51.720;14.384;2024-02-21T02:18:20;6.90;99.90
18779;DHT22;9518;51.720;14.384;2024-02-21T02:20:47;6.90;99.90
18779;DHT22;9518;51.720;14.384;2024-02-21T02:23:23;6.90;99.90
18779;DHT22;9518;51.720;14.384;2024-02-21T02:25:52;6.90;99.90
18779;DHT22;9518;51.720;14.384;2024-02-21T02:28:20;6.90;99.90
18779;DHT22;9518;51.720;14.384;2024-02-21T02:30:48;7.00;99.90
18779;DHT22;9518;51.720;14.384;2024-02-21T02:33:15;6.90;99.90
18779;DHT22;9518;51.720;14.384;2024-02-21T02:35:43;6.90;99.90
18779;DHT22;9518;51.720;14.384;2024-02-21T02:38:10;7.00;99.90
18779;DHT22;9518;51.720;14.384;2024-02-21T02:40:41;7.00;99.90
18779;DHT22;9518;51.720;14.384;2024-02-21T02:43:09;7.00;99.90
18779;DHT22;9518;51.720;14.384;2024-02-21T02:45:36;7.00;99.90
18779;DHT22;9518;51.720;14.384;2024-02-21T02:48:03;7.10;99.90
18779;DHT22;9518;51.720;14.384;2024-02-21T02:50:30;7.00;99.90
18779;DHT22;9518;51.720;14.384;2024-02-21T02:52:57;7.10;99.90
18779;DHT22;9518;51.720;14.384;2024-02-21T02:55:24;7.10;99.90
18779;DHT22;9518;51.720;14.384;2024-02-21T02:57:53;7.10;99.90
18779;DHT22;9518;51.720;14.384;2024-02-21T03:00:21;7.00;99.90
18779;DHT22;9518;51.720;14.384;2024-02-21T03:02:49;7.00;99.90
18779;DHT22;9518;51.720;14.384;2024-02-21T03:05:18;7.00;99.90
18779;DHT22;9518;51.720;14.384;2024-02-21T03:07:46;7.00;99.90
18779;DHT22;9518;51.720;14.384;2024-02-21T03:10:14;7.10;99.90
18779;DHT22;9518;51.720;14.384;2024-02-21T03:12:42;7.10;99.90
18779;DHT22;9518;51.720;14.384;2024-02-21T03:15:12;7.10;99.90
18779;DHT22;9518;51.720;14.384;2024-02-21T03:17:39;7.00;99.90
18779;DHT22;9518;51.720;14.384;2024-02-21T03:20:08;7.00;99.90
18779;DHT22;9518;51.720;14.384;2024-02-21T03:22:36;6.90;99.90
18779;DHT22;9518;51.720;14.384;2024-02-21T03:25:03;6.90;99.90
18779;DHT22;9518;51.720;14.384;2024-02-21T03:27:30;6.80;99.90
18779;DHT22;9518;51.720;14.384;2024-02-21T03:29:57;6.70;99.90
18779;DHT22;9518;51.720;14.384;2024-02-21T03:32:26;6.60;99.90
18779;DHT22;9518;51.720;14.384;2024-02-21T03:34:56;6.60;99.90
18779;DHT22;9518;51.720;14.384;2024-02-21T03:37:23;6.50;99.90
18779;DHT22;9518;51.720;14.384;2024-02-21T03:39:51;6.50;99.90
18779;DHT22;9518;51.720;14.384;2024-02-21T03:42:18;6.40;99.90
18779;DHT22;9518;51.720;14.384;2024-02-21T03:44:45;6.30;99.90
18779;DHT22;9518;51.720;14.384;2024-02-21T03:47:12;6.30;99.90
18779;DHT22;9518;51.720;14.384;2024-02-21T03:49:41;6.20;99.90
18779;DHT22;9518;51.720;14.384;2024-02-21T03:52:08;6.20;99.90
18779;DHT22;9518;51.720;14.384;2024-02-21T03:54:36;6.20;99.90
18779;DHT22;9518;51.720;14.384;2024-02-21T03:57:04;6.20;99.90
18779;DHT22;9518;51.720;14.384;2024-02-21T03:59:32;6.10;99.90
18779;DHT22;9518;51.720;14.384;2024-02-21T04:01:58;6.20;99.90
18779;DHT22;9518;51.720;14.384;2024-02-21T04:04:26;6.10;99.90
18779;DHT22;9518;51.720;14.384;2024-02-21T04:06:54;6.10;99.90
18779;DHT22;9518;51.720;14.384;2024-02-21T04:09:22;6.10;99.90
18779;DHT22;9518;51.720;14.384;2024-02-21T04:11:49;6.10;99.90
18779;DHT22;9518;51.720;14.384;2024-02-21T04:14:16;6.10;99.90
18779;DHT22;9518;51.720;14.384;2024-02-21T04:16:43;6.10;99.90
18779;DHT22;9518;51.720;14.384;2024-02-21T04:19:10;6.10;99.90
18779;DHT22;9518;51.720;14.384;2024-02-21T04:21:38;6.20;99.90
18779;DHT22;9518;51.720;14.384;2024-02-21T04:24:06;6.20;99.90
18779;DHT22;9518;51.720;14.384;2024-02-21T04:26:35;6.10;99.90
18779;DHT22;9518;51.720;14.384;2024-02-21T04:29:02;6.10;99.90
18779;DHT22;9518;51.720;14.384;2024-02-21T04:31:30;6.10;99.90
18779;DHT22;9518;51.720;14.384;2024-02-21T04:33:58;6.10;99.90
18779;DHT22;9518;51.720;14.384;2024-02-21T04:36:27;6.00;99.90
18779;DHT22;9518;51.720;14.384;2024-02-21T04:38:54;6.00;99.90
18779;DHT22;9518;51.720;14.384;2024-02-21T04:41:23;6.00;99.90
18779;DHT22;9518;51.720;14.384;2024-02-21T04:43:50;6.00;99.90
18779;DHT22;9518;51.720;14.384;2024-02-21T04:46:17;6.00;99.90
18779;DHT22;9518;51.720;14.384;2024-02-21T04:48:44;6.00;99.90
18779;DHT22;9518;51.720;14.384;2024-02-21T04:51:12;6.00;99.90
18779;DHT22;9518;51.720;14.384;2024-02-21T04:53:39;6.00;99.90
18779;DHT22;9518;51.720;14.384;2024-02-21T04:56:06;6.00;99.90
18779;DHT22;9518;51.720;14.384;2024-02-21T04:58:38;6.00;99.90
18779;DHT22;9518;51.720;14.384;2024-02-21T05:01:05;6.00;99.90
18779;DHT22;9518;51.720;14.384;2024-02-21T05:03:33;6.00;99.90
18779;DHT22;9518;51.720;14.384;2024-02-21T05:06:00;6.00;99.90
18779;DHT22;9518;51.720;14.384;2024-02-21T05:08:28;6.00;99.90
18779;DHT22;9518;51.720;14.384;2024-02-21T05:10:55;6.00;99.90
18779;DHT22;9518;51.720;14.384;2024-02-21T05:13:22;6.00;99.90
18779;DHT22;9518;51.720;14.384;2024-02-21T05:16:00;6.00;99.90
18779;DHT22;9518;51.720;14.384;2024-02-21T05:18:28;6.00;99.90
18779;DHT22;9518;51.720;14.384;2024-02-21T05:20:56;6.00;99.90
18779;DHT22;9518;51.720;14.384;2024-02-21T05:23:23;5.90;99.90
18779;DHT22;9518;51.720;14.384;2024-02-21T05:25:50;5.90;99.90
18779;DHT22;9518;51.720;14.384;2024-02-21T05:28:18;5.90;99.90
18779;DHT22;9518;51.720;14.384;2024-02-21T05:30:47;6.00;99.90
18779;DHT22;9518;51.720;14.384;2024-02-21T05:33:15;5.90;99.90
18779;DHT22;9518;51.720;14.384;2024-02-21T05:35:46;5.90;99.90
18779;DHT22;9518;51.720;14.384;2024-02-21T05:38:14;5.90;99.90
18779;DHT22;9518;51.720;14.384;2024-02-21T05:40:42;5.90;99.90
18779;DHT22;9518;51.720;14.384;2024-02-21T05:43:09;5.90;99.90
18779;DHT22;9518;51.720;14.384;2024-02-21T05:45:36;5.90;99.90
18779;DHT22;9518;51.720;14.384;2024-02-21T05:48:04;5.90;99.90
18779;DHT22;9518;51.720;14.384;2024-02-21T05:50:32;5.80;99.90
18779;DHT22;9518;51.720;14.384;2024-02-21T05:53:00;5.80;99.90
18779;DHT22;9518;51.720;14.384;2024-02-21T05:55:29;5.80;99.90
18779;DHT22;9518;51.720;14.384;2024-02-21T05:57:56;5.80;99.90
18779;DHT22;9518;51.720;14.384;2024-02-21T06:00:26;5.90;99.90
18779;DHT22;9518;51.720;14.384;2024-02-21T06:02:53;5.80;99.90
18779;DHT22;9518;51.720;14.384;2024-02-21T06:05:20;5.80;99.90
18779;DHT22;9518;51.720;14.384;2024-02-21T06:07:48;5.80;99.90
18779;DHT22;9518;51.720;14.384;2024-02-21T06:10:18;5.80;99.90
18779;DHT22;9518;51.720;14.384;2024-02-21T06:12:45;5.90;99.90
18779;DHT22;9518;51.720;14.384;2024-02-21T06:15:12;5.90;99.90
18779;DHT22;9518;51.720;14.384;2024-02-21T06:17:39;5.90;99.90
18779;DHT22;9518;51.720;14.384;2024-02-21T06:20:08;5.80;99.90
18779;DHT22;9518;51.720;14.384;2024-02-21T06:22:35;5.80;99.90
18779;DHT22;9518;51.720;14.384;2024-02-21T06:25:04;5.80;99.90
18779;DHT22;9518;51.720;14.384;2024-02-21T06:27:31;5.80;99.90
18779;DHT22;9518;51.720;14.384;2024-02-21T06:29:58;5.90;99.90
18779;DHT22;9518;51.720;14.384;2024-02-21T06:32:25;5.80;99.90
18779;DHT22;9518;51.720;14.384;2024-02-21T06:34:52;5.90;99.90
18779;DHT22;9518;51.720;14.384;2024-02-21T06:37:19;5.90;99.90
18779;DHT22;9518;51.720;14.384;2024-02-21T06:39:46;5.90;99.90
18779;DHT22;9518;51.720;14.384;2024-02-21T06:42:14;5.90;99.90
18779;DHT22;9518;51.720;14.384;2024-02-21T06:44:41;5.90;99.90
18779;DHT22;9518;51.720;14.384;2024-02-21T06:47:09;5.90;99.90
18779;DHT22;9518;51.720;14.384;2024-02-21T06:49:36;5.90;99.90
18779;DHT22;9518;51.720;14.384;2024-02-21T06:52:04;5.90;99.90
18779;DHT22;9518;51.720;14.384;2024-02-21T06:54:31;6.00;99.90
18779;DHT22;9518;51.720;14.384;2024-02-21T06:56:58;6.00;99.90
18779;DHT22;9518;51.720;14.384;2024-02-21T06:59:27;6.00;99.90
18779;DHT22;9518;51.720;14.384;2024-02-21T07:01:54;6.00;99.90
18779;DHT22;9518;51.720;14.384;2024-02-21T07:04:22;6.10;99.90
18779;DHT22;9518;51.720;14.384;2024-02-21T07:06:49;6.10;99.90
18779;DHT22;9518;51.720;14.384;2024-02-21T07:09:16;6.20;99.90
18779;DHT22;9518;51.720;14.384;2024-02-21T07:11:43;6.20;99.90
18779;DHT22;9518;51.720;14.384;2024-02-21T07:14:11;6.30;99.90
18779;DHT22;9518;51.720;14.384;2024-02-21T07:16:42;6.30;99.90
18779;DHT22;9518;51.720;14.384;2024-02-21T07:19:11;6.30;99.90
18779;DHT22;9518;51.720;14.384;2024-02-21T07:21:38;6.30;99.90
18779;DHT22;9518;51.720;14.384;2024-02-21T07:24:07;6.30;99.90
18779;DHT22;9518;51.720;14.384;2024-02-21T07:26:35;6.30;99.90
18779;DHT22;9518;51.720;14.384;2024-02-21T07:29:01;6.40;99.90
18779;DHT22;9518;51.720;14.384;2024-02-21T07:31:28;6.40;99.90
18779;DHT22;9518;51.720;14.384;2024-02-21T07:33:57;6.50;99.90
18779;DHT22;9518;51.720;14.384;2024-02-21T07:36:27;6.60;99.90
18779;DHT22;9518;51.720;14.384;2024-02-21T07:38:55;6.60;99.90
18779;DHT22;9518;51.720;14.384;2024-02-21T07:41:22;6.60;99.90
18779;DHT22;9518;51.720;14.384;2024-02-21T07:43:49;6.70;99.90
18779;DHT22;9518;51.720;14.384;2024-02-21T07:46:16;6.70;99.90
18779;DHT22;9518;51.720;14.384;2024-02-21T07:48:45;6.70;99.90
18779;DHT22;9518;51.720;14.384;2024-02-21T07:51:15;6.80;99.90
18779;DHT22;9518;51.720;14.384;2024-02-21T07:53:43;6.90;99.90
18779;DHT22;9518;51.720;14.384;2024-02-21T07:56:11;7.00;99.90
18779;DHT22;9518;51.720;14.384;2024-02-21T07:58:39;7.00;99.90
18779;DHT22;9518;51.720;14.384;2024-02-21T08:01:06;7.10;99.90
18779;DHT22;9518;51.720;14.384;2024-02-21T08:03:33;7.20;99.90
18779;DHT22;9518;51.720;14.384;2024-02-21T08:06:01;7.20;99.90
18779;DHT22;9518;51.720;14.384;2024-02-21T08:08:29;7.30;99.90
18779;DHT22;9518;51.720;14.384;2024-02-21T08:10:58;7.40;99.90
18779;DHT22;9518;51.720;14.384;2024-02-21T08:13:25;7.50;99.90
18779;DHT22;9518;51.720;14.384;2024-02-21T08:15:54;7.60;99.90
18779;DHT22;9518;51.720;14.384;2024-02-21T08:18:21;7.80;99.90
18779;DHT22;9518;51.720;14.384;2024-02-21T08:20:48;7.90;99.90
18779;DHT22;9518;51.720;14.384;2024-02-21T08:23:18;8.00;99.90
18779;DHT22;9518;51.720;14.384;2024-02-21T08:25:47;8.00;99.90
18779;DHT22;9518;51.720;14.384;2024-02-21T08:28:18;8.00;99.90
18779;DHT22;9518;51.720;14.384;2024-02-21T08:30:46;8.00;99.90
18779;DHT22;9518;51.720;14.384;2024-02-21T08:33:15;8.00;99.90
18779;DHT22;9518;51.720;14.384;2024-02-21T08:35:44;8.00;99.90
18779;DHT22;9518;51.720;14.384;2024-02-21T08:38:11;8.10;99.90
18779;DHT22;9518;51.720;14.384;2024-02-21T08:40:38;8.10;99.90
18779;DHT22;9518;51.720;14.384;2024-02-21T08:43:07;8.10;99.90
18779;DHT22;9518;51.720;14.384;2024-02-21T08:45:34;8.10;99.90
18779;DHT22;9518;51.720;14.384;2024-02-21T08:48:01;8.10;99.90
18779;DHT22;9518;51.720;14.384;2024-02-21T08:50:28;8.20;99.90
18779;DHT22;9518;51.720;14.384;2024-02-21T08:52:58;8.30;99.90
18779;DHT22;9518;51.720;14.384;2024-02-21T08:55:26;8.40;99.90
18779;DHT22;9518;51.720;14.384;2024-02-21T08:57:53;8.40;99.90
18779;DHT22;9518;51.720;14.384;2024-02-21T09:00:24;8.40;99.90
18779;DHT22;9518;51.720;14.384;2024-02-21T09:02:52;8.40;99.90
18779;DHT22;9518;51.720;14.384;2024-02-21T09:05:21;8.40;99.90
18779;DHT22;9518;51.720;14.384;2024-02-21T09:07:48;8.40;99.90
18779;DHT22;9518;51.720;14.384;2024-02-21T09:10:15;8.40;99.90
18779;DHT22;9518;51.720;14.384;2024-02-21T09:12:43;8.40;99.90
18779;DHT22;9518;51.720;14.384;2024-02-21T09:15:12;8.50;99.90
18779;DHT22;9518;51.720;14.384;2024-02-21T09:17:41;8.60;99.90
18779;DHT22;9518;51.720;14.384;2024-02-21T09:20:09;8.70;99.90
18779;DHT22;9518;51.720;14.384;2024-02-21T09:22:37;8.80;99.90
18779;DHT22;9518;51.720;14.384;2024-02-21T09:25:06;9.00;99.90
18779;DHT22;9518;51.720;14.384;2024-02-21T09:27:37;9.20;99.90
18779;DHT22;9518;51.720;14.384;2024-02-21T09:30:06;9.40;99.90
18779;DHT22;9518;51.720;14.384;2024-02-21T09:32:33;9.60;99.90
18779;DHT22;9518;51.720;14.384;2024-02-21T09:35:01;9.70;99.90
18779;DHT22;9518;51.720;14.384;2024-02-21T09:37:29;9.70;99.90
18779;DHT22;9518;51.720;14.384;2024-02-21T09:39:56;9.70;99.90
18779;DHT22;9518;51.720;14.384;2024-02-21T09:42:29;9.70;99.90
18779;DHT22;9518;51.720;14.384;2024-02-21T09:44:59;9.50;99.90
18779;DHT22;9518;51.720;14.384;2024-02-21T09:47:31;9.60;99.90
18779;DHT22;9518;51.720;14.384;2024-02-21T09:50:05;9.60;99.90
18779;DHT22;9518;51.720;14.384;2024-02-21T09:52:32;9.70;99.90
18779;DHT22;9518;51.720;14.384;2024-02-21T09:55:02;9.60;99.90
18779;DHT22;9518;51.720;14.384;2024-02-21T09:57:31;9.60;99.90
18779;DHT22;9518;51.720;14.384;2024-02-21T09:59:58;9.60;99.90
18779;DHT22;9518;51.720;14.384;2024-02-21T10:02:26;9.60;99.90
18779;DHT22;9518;51.720;14.384;2024-02-21T10:04:53;9.60;99.90
18779;DHT22;9518;51.720;14.384;2024-02-21T10:07:22;9.70;99.90
18779;DHT22;9518;51.720;14.384;2024-02-21T10:10:00;9.70;99.90
18779;DHT22;9518;51.720;14.384;2024-02-21T10:12:28;9.80;99.90
18779;DHT22;9518;51.720;14.384;2024-02-21T10:15:00;9.70;99.90
18779;DHT22;9518;51.720;14.384;2024-02-21T10:17:28;9.70;99.90
18779;DHT22;9518;51.720;14.384;2024-02-21T10:19:55;9.80;99.90
18779;DHT22;9518;51.720;14.384;2024-02-21T10:22:25;10.00;99.90
18779;DHT22;9518;51.720;14.384;2024-02-21T10:24:53;10.10;99.90
18779;DHT22;9518;51.720;14.384;2024-02-21T10:27:23;10.20;99.90
18779;DHT22;9518;51.720;14.384;2024-02-21T10:29:51;10.30;99.90
18779;DHT22;9518;51.720;14.384;2024-02-21T10:32:18;10.40;99.90
18779;DHT22;9518;51.720;14.384;2024-02-21T10:34:45;10.50;99.90
18779;DHT22;9518;51.720;14.384;2024-02-21T10:37:17;10.40;99.90
18779;DHT22;9518;51.720;14.384;2024-02-21T10:39:45;10.40;99.90
18779;DHT22;9518;51.720;14.384;2024-02-21T10:42:13;10.40;99.90
18779;DHT22;9518;51.720;14.384;2024-02-21T10:44:42;10.10;99.90
18779;DHT22;9518;51.720;14.384;2024-02-21T10:47:10;10.10;99.90
18779;DHT22;9518;51.720;14.384;2024-02-21T10:49:44;10.00;99.90
18779;DHT22;9518;51.720;14.384;2024-02-21T10:52:14;10.00;99.90
18779;DHT22;9518;51.720;14.384;2024-02-21T10:55:03;10.10;99.90
18779;DHT22;9518;51.720;14.384;2024-02-21T10:57:31;10.20;99.90
18779;DHT22;9518;51.720;14.384;2024-02-21T10:59:59;10.10;99.90
18779;DHT22;9518;51.720;14.384;2024-02-21T11:02:26;10.00;99.90
18779;DHT22;9518;51.720;14.384;2024-02-21T11:04:57;10.10;99.90
18779;DHT22;9518;51.720;14.384;2024-02-21T11:07:25;10.10;99.90
18779;DHT22;9518;51.720;14.384;2024-02-21T11:09:53;10.10;99.90
18779;DHT22;9518;51.720;14.384;2024-02-21T11:12:21;10.00;99.90
18779;DHT22;9518;51.720;14.384;2024-02-21T11:14:49;10.10;99.90
18779;DHT22;9518;51.720;14.384;2024-02-21T11:17:16;10.10;99.90
18779;DHT22;9518;51.720;14.384;2024-02-21T11:19:44;10.00;99.90
18779;DHT22;9518;51.720;14.384;2024-02-21T11:22:15;10.00;99.90
18779;DHT22;9518;51.720;14.384;2024-02-21T11:24:43;10.20;99.90
18779;DHT22;9518;51.720;14.384;2024-02-21T11:27:14;10.40;99.90
18779;DHT22;9518;51.720;14.384;2024-02-21T11:29:43;10.50;99.90
18779;DHT22;9518;51.720;14.384;2024-02-21T11:32:10;10.60;99.90
18779;DHT22;9518;51.720;14.384;2024-02-21T11:34:38;10.70;99.90
18779;DHT22;9518;51.720;14.384;2024-02-21T11:37:13;10.80;99.90
18779;DHT22;9518;51.720;14.384;2024-02-21T11:39:43;11.00;99.90
18779;DHT22;9518;51.720;14.384;2024-02-21T11:42:11;10.90;99.90
18779;DHT22;9518;51.720;14.384;2024-02-21T11:44:39;11.00;99.90
18779;DHT22;9518;51.720;14.384;2024-02-21T11:47:08;11.10;99.90
18779;DHT22;9518;51.720;14.384;2024-02-21T11:49:37;11.20;99.90
18779;DHT22;9518;51.720;14.384;2024-02-21T11:52:05;11.10;99.90
18779;DHT22;9518;51.720;14.384;2024-02-21T11:54:34;11.00;99.90
18779;DHT22;9518;51.720;14.384;2024-02-21T11:57:01;11.10;99.90
18779;DHT22;9518;51.720;14.384;2024-02-21T11:59:32;11.20;99.90
18779;DHT22;9518;51.720;14.384;2024-02-21T12:01:59;11.30;99.90
18779;DHT22;9518;51.720;14.384;2024-02-21T12:04:29;11.30;99.90
18779;DHT22;9518;51.720;14.384;2024-02-21T12:06:57;11.30;99.90
18779;DHT22;9518;51.720;14.384;2024-02-21T12:09:25;11.20;99.90
18779;DHT22;9518;51.720;14.384;2024-02-21T12:11:58;11.20;99.90
18779;DHT22;9518;51.720;14.384;2024-02-21T12:14:27;11.00;99.90
18779;DHT22;9518;51.720;14.384;2024-02-21T12:16:56;10.90;99.90
18779;DHT22;9518;51.720;14.384;2024-02-21T12:19:23;11.00;99.90
18779;DHT22;9518;51.720;14.384;2024-02-21T12:21:50;11.00;99.90
18779;DHT22;9518;51.720;14.384;2024-02-21T12:24:22;11.00;99.90
18779;DHT22;9518;51.720;14.384;2024-02-21T12:26:49;11.10;99.90
18779;DHT22;9518;51.720;14.384;2024-02-21T12:29:17;11.00;99.90
18779;DHT22;9518;51.720;14.384;2024-02-21T12:31:44;11.10;99.90
18779;DHT22;9518;51.720;14.384;2024-02-21T12:34:14;11.10;99.90
18779;DHT22;9518;51.720;14.384;2024-02-21T12:36:43;11.10;99.90
18779;DHT22;9518;51.720;14.384;2024-02-21T12:39:11;11.10;99.90
18779;DHT22;9518;51.720;14.384;2024-02-21T12:41:39;11.30;99.90
18779;DHT22;9518;51.720;14.384;2024-02-21T12:44:06;11.30;99.90
18779;DHT22;9518;51.720;14.384;2024-02-21T12:46:35;11.10;99.90
18779;DHT22;9518;51.720;14.384;2024-02-21T12:49:05;11.10;99.90
18779;DHT22;9518;51.720;14.384;2024-02-21T12:51:35;11.00;99.90
18779;DHT22;9518;51.720;14.384;2024-02-21T12:54:03;11.00;99.90
18779;DHT22;9518;51.720;14.384;2024-02-21T12:56:30;11.20;99.90
18779;DHT22;9518;51.720;14.384;2024-02-21T12:58:58;11.20;99.90
18779;DHT22;9518;51.720;14.384;2024-02-21T13:01:26;11.10;99.90
18779;DHT22;9518;51.720;14.384;2024-02-21T13:03:53;11.10;99.90
18779;DHT22;9518;51.720;14.384;2024-02-21T13:06:21;11.10;99.90
18779;DHT22;9518;51.720;14.384;2024-02-21T13:08:50;11.20;99.90
18779;DHT22;9518;51.720;14.384;2024-02-21T13:11:17;11.30;99.90
18779;DHT22;9518;51.720;14.384;2024-02-21T13:13:45;11.40;99.90
18779;DHT22;9518;51.720;14.384;2024-02-21T13:16:13;11.60;99.90
18779;DHT22;9518;51.720;14.384;2024-02-21T13:18:40;11.70;99.90
18779;DHT22;9518;51.720;14.384;2024-02-21T13:21:10;11.70;99.90
18779;DHT22;9518;51.720;14.384;2024-02-21T13:23:37;11.60;99.90
18779;DHT22;9518;51.720;14.384;2024-02-21T13:26:06;11.50;99.90
18779;DHT22;9518;51.720;14.384;2024-02-21T13:28:33;11.30;99.90
18779;DHT22;9518;51.720;14.384;2024-02-21T13:31:00;11.30;99.90
18779;DHT22;9518;51.720;14.384;2024-02-21T13:33:28;11.00;99.90
18779;DHT22;9518;51.720;14.384;2024-02-21T13:35:55;10.90;99.90
18779;DHT22;9518;51.720;14.384;2024-02-21T13:38:22;10.90;99.90
18779;DHT22;9518;51.720;14.384;2024-02-21T13:40:49;11.00;99.90
18779;DHT22;9518;51.720;14.384;2024-02-21T13:43:20;11.10;99.90
18779;DHT22;9518;51.720;14.384;2024-02-21T13:45:58;11.10;99.90
18779;DHT22;9518;51.720;14.384;2024-02-21T13:48:26;11.30;99.90
18779;DHT22;9518;51.720;14.384;2024-02-21T13:50:55;11.20;99.90
18779;DHT22;9518;51.720;14.384;2024-02-21T13:53:22;11.10;99.90
18779;DHT22;9518;51.720;14.384;2024-02-21T13:55:51;11.00;99.90
18779;DHT22;9518;51.720;14.384;2024-02-21T13:58:20;11.10;99.90
18779;DHT22;9518;51.720;14.384;2024-02-21T14:00:48;11.10;99.90
18779;DHT22;9518;51.720;14.384;2024-02-21T14:03:15;11.00;99.90
18779;DHT22;9518;51.720;14.384;2024-02-21T14:05:42;11.00;99.90
18779;DHT22;9518;51.720;14.384;2024-02-21T14:08:09;10.80;99.90
18779;DHT22;9518;51.720;14.384;2024-02-21T14:10:36;10.90;99.90
18779;DHT22;9518;51.720;14.384;2024-02-21T14:13:04;10.80;99.90
18779;DHT22;9518;51.720;14.384;2024-02-21T14:15:32;10.60;99.90
18779;DHT22;9518;51.720;14.384;2024-02-21T14:17:59;10.50;99.90
18779;DHT22;9518;51.720;14.384;2024-02-21T14:20:26;10.40;99.90
18779;DHT22;9518;51.720;14.384;2024-02-21T14:22:53;10.50;99.90
18779;DHT22;9518;51.720;14.384;2024-02-21T14:25:20;10.30;99.90
18779;DHT22;9518;51.720;14.384;2024-02-21T14:27:48;10.30;99.90
18779;DHT22;9518;51.720;14.384;2024-02-21T14:30:15;10.30;99.90
18779;DHT22;9518;51.720;14.384;2024-02-21T14:32:44;10.30;99.90
18779;DHT22;9518;51.720;14.384;2024-02-21T14:35:12;10.30;99.90
18779;DHT22;9518;51.720;14.384;2024-02-21T14:37:39;10.30;99.90
18779;DHT22;9518;51.720;14.384;2024-02-21T14:40:07;10.30;99.90
18779;DHT22;9518;51.720;14.384;2024-02-21T14:42:34;10.30;99.90
18779;DHT22;9518;51.720;14.384;2024-02-21T14:45:04;10.30;99.90
18779;DHT22;9518;51.720;14.384;2024-02-21T14:47:31;10.30;99.90
18779;DHT22;9518;51.720;14.384;2024-02-21T14:50:03;10.30;99.90
18779;DHT22;9518;51.720;14.384;2024-02-21T14:52:31;10.20;99.90
18779;DHT22;9518;51.720;14.384;2024-02-21T14:55:00;10.10;99.90
18779;DHT22;9518;51.720;14.384;2024-02-21T14:57:28;10.10;99.90
18779;DHT22;9518;51.720;14.384;2024-02-21T14:59:55;10.10;99.90
18779;DHT22;9518;51.720;14.384;2024-02-21T15:02:24;10.10;99.90
18779;DHT22;9518;51.720;14.384;2024-02-21T15:04:53;10.00;99.90
18779;DHT22;9518;51.720;14.384;2024-02-21T15:07:21;10.00;99.90
18779;DHT22;9518;51.720;14.384;2024-02-21T15:09:50;10.10;99.90
18779;DHT22;9518;51.720;14.384;2024-02-21T15:12:18;10.10;99.90
18779;DHT22;9518;51.720;14.384;2024-02-21T15:14:45;10.00;99.90
18779;DHT22;9518;51.720;14.384;2024-02-21T15:17:12;10.00;99.90
18779;DHT22;9518;51.720;14.384;2024-02-21T15:19:39;10.00;99.90
18779;DHT22;9518;51.720;14.384;2024-02-21T15:22:09;10.00;99.90
18779;DHT22;9518;51.720;14.384;2024-02-21T15:24:39;10.00;99.90
18779;DHT22;9518;51.720;14.384;2024-02-21T15:27:07;10.00;99.90
18779;DHT22;9518;51.720;14.384;2024-02-21T15:29:35;10.00;99.90
18779;DHT22;9518;51.720;14.384;2024-02-21T15:32:03;10.00;99.90
18779;DHT22;9518;51.720;14.384;2024-02-21T15:34:31;10.10;99.90
18779;DHT22;9518;51.720;14.384;2024-02-21T15:36:58;10.00;99.90
18779;DHT22;9518;51.720;14.384;2024-02-21T15:39:25;10.00;99.90
18779;DHT22;9518;51.720;14.384;2024-02-21T15:41:55;9.90;99.90
18779;DHT22;9518;51.720;14.384;2024-02-21T15:44:22;9.80;99.90